<?xml version="1.0" encoding="UTF-8" standalone="no" ?>
<gpx xmlns="http://www.topografix.com/GPX/1/1" xmlns:xsi="http://www.w3.org/2001/XMLSchema-instance" xsi:schemaLocation="http://www.topografix.com/GPX/1/1 http://www.topografix.com/GPX/1/1/gpx.xsd" version="1.1" creator="VisuGPX - https://www.visugpx.com">
  <metadata>
    <name>GR441 Kevin</name>
  </metadata>
  <wpt lat="45.86793" lon="2.95388">
    <ele>900.5</ele>
    <name><![CDATA[Bivy 1]]></name>
    <type><![CDATA[camping]]></type>
  </wpt>
  <wpt lat="45.77933" lon="2.86085">
    <ele>758</ele>
    <name><![CDATA[Bivy 2]]></name>
    <desc><![CDATA[Bivouac 2]]></desc>
    <type><![CDATA[camping]]></type>
  </wpt>
  <wpt lat="45.64793" lon="2.85852">
    <ele>1207.1</ele>
    <name><![CDATA[Bivy 3]]></name>
    <type><![CDATA[camping]]></type>
  </wpt>
  <wpt lat="45.71022" lon="2.94378">
    <ele>1043.6</ele>
    <name><![CDATA[Bivy 4]]></name>
    <type><![CDATA[camping]]></type>
  </wpt>
  <wpt lat="45.7932" lon="2.9464">
    <ele>1028.1</ele>
    <name><![CDATA[Bivy 5]]></name>
    <type><![CDATA[camping]]></type>
  </wpt>
  <wpt lat="45.86932" lon="2.98248">
    <ele>807</ele>
    <name><![CDATA[Bivy 6a]]></name>
    <type><![CDATA[camping]]></type>
  </wpt>
  <wpt lat="45.88162" lon="3.03012">
    <ele>659.4</ele>
    <name><![CDATA[Bivy 6b]]></name>
    <type><![CDATA[camping]]></type>
  </wpt>
  <wpt lat="45.90557" lon="2.99635">
    <ele>720.2</ele>
    <name><![CDATA[Départ / Arrivée1]]></name>
    <type><![CDATA[user]]></type>
  </wpt>
  <trk>
    <name><![CDATA[J4]]></name>
    <extensions>
      <line xmlns="http://www.topografix.com/GPX/gpx_style/0/2">
        <color>ff9200</color>
        <width>4</width>
      </line>
    </extensions>
    <trkseg>
      <trkpt lat="45.64795" lon="2.85844">
        <ele>1209.74014</ele>
        <time>2022-03-06T07:16:38Z</time>
      </trkpt>
      <trkpt lat="45.64772" lon="2.86025">
        <ele>1209.137145</ele>
        <time>2022-03-06T07:18:47Z</time>
      </trkpt>
      <trkpt lat="45.64761" lon="2.86032">
        <ele>1209.081574</ele>
        <time>2022-03-06T07:19:00Z</time>
      </trkpt>
      <trkpt lat="45.64729" lon="2.86096">
        <ele>1208.374619</ele>
        <time>2022-03-06T07:19:54Z</time>
      </trkpt>
      <trkpt lat="45.64719" lon="2.86169">
        <ele>1206.518645</ele>
        <time>2022-03-06T07:20:49Z</time>
      </trkpt>
      <trkpt lat="45.64725" lon="2.86231">
        <ele>1204.977673</ele>
        <time>2022-03-06T07:21:36Z</time>
      </trkpt>
      <trkpt lat="45.64735" lon="2.86267">
        <ele>1204.023353</ele>
        <time>2022-03-06T07:22:06Z</time>
      </trkpt>
      <trkpt lat="45.6473" lon="2.86381">
        <ele>1199.947464</ele>
        <time>2022-03-06T07:23:35Z</time>
      </trkpt>
      <trkpt lat="45.64724" lon="2.86544">
        <ele>1192.278156</ele>
        <time>2022-03-06T07:25:47Z</time>
      </trkpt>
      <trkpt lat="45.64725" lon="2.86565">
        <ele>1191.261798</ele>
        <time>2022-03-06T07:26:04Z</time>
      </trkpt>
      <trkpt lat="45.64727" lon="2.86624">
        <ele>1189.240596</ele>
        <time>2022-03-06T07:26:50Z</time>
      </trkpt>
      <trkpt lat="45.64728" lon="2.8663">
        <ele>1189.058315</ele>
        <time>2022-03-06T07:26:55Z</time>
      </trkpt>
      <trkpt lat="45.64721" lon="2.86641">
        <ele>1188.631629</ele>
        <time>2022-03-06T07:27:07Z</time>
      </trkpt>
      <trkpt lat="45.64685" lon="2.86825">
        <ele>1183.24376</ele>
        <time>2022-03-06T07:29:30Z</time>
      </trkpt>
      <trkpt lat="45.64654" lon="2.86906">
        <ele>1182.05939</ele>
        <time>2022-03-06T07:30:36Z</time>
      </trkpt>
      <trkpt lat="45.64567" lon="2.87032">
        <ele>1179.687412</ele>
        <time>2022-03-06T07:32:44Z</time>
      </trkpt>
      <trkpt lat="45.64563" lon="2.87066">
        <ele>1178.418148</ele>
        <time>2022-03-06T07:33:08Z</time>
      </trkpt>
      <trkpt lat="45.64549" lon="2.87102">
        <ele>1176.8908</ele>
        <time>2022-03-06T07:33:39Z</time>
      </trkpt>
      <trkpt lat="45.64524" lon="2.87131">
        <ele>1175.117502</ele>
        <time>2022-03-06T07:34:17Z</time>
      </trkpt>
      <trkpt lat="45.64518" lon="2.87153">
        <ele>1174.237353</ele>
        <time>2022-03-06T07:34:35Z</time>
      </trkpt>
      <trkpt lat="45.64519" lon="2.87188">
        <ele>1172.924043</ele>
        <time>2022-03-06T07:35:02Z</time>
      </trkpt>
      <trkpt lat="45.645" lon="2.8721">
        <ele>1171.586327</ele>
        <time>2022-03-06T07:35:31Z</time>
      </trkpt>
      <trkpt lat="45.64496" lon="2.8723">
        <ele>1170.831996</ele>
        <time>2022-03-06T07:35:47Z</time>
      </trkpt>
      <trkpt lat="45.64498" lon="2.87247">
        <ele>1170.040502</ele>
        <time>2022-03-06T07:36:01Z</time>
      </trkpt>
      <trkpt lat="45.64515" lon="2.87316">
        <ele>1165.187924</ele>
        <time>2022-03-06T07:37:00Z</time>
      </trkpt>
      <trkpt lat="45.6452" lon="2.87419">
        <ele>1158.328325</ele>
        <time>2022-03-06T07:38:27Z</time>
      </trkpt>
      <trkpt lat="45.64526" lon="2.87444">
        <ele>1156.557099</ele>
        <time>2022-03-06T07:38:50Z</time>
      </trkpt>
      <trkpt lat="45.64513" lon="2.8755">
        <ele>1149.630273</ele>
        <time>2022-03-06T07:40:21Z</time>
      </trkpt>
      <trkpt lat="45.6452" lon="2.87615">
        <ele>1145.478221</ele>
        <time>2022-03-06T07:41:15Z</time>
      </trkpt>
      <trkpt lat="45.64516" lon="2.87626">
        <ele>1144.720449</ele>
        <time>2022-03-06T07:41:25Z</time>
      </trkpt>
      <trkpt lat="45.6452" lon="2.8768">
        <ele>1141.319636</ele>
        <time>2022-03-06T07:42:09Z</time>
      </trkpt>
      <trkpt lat="45.64546" lon="2.87811">
        <ele>1134.228213</ele>
        <time>2022-03-06T07:44:00Z</time>
      </trkpt>
      <trkpt lat="45.64579" lon="2.87846">
        <ele>1131.811466</ele>
        <time>2022-03-06T07:44:46Z</time>
      </trkpt>
      <trkpt lat="45.64625" lon="2.87879">
        <ele>1128.802455</ele>
        <time>2022-03-06T07:45:43Z</time>
      </trkpt>
      <trkpt lat="45.64665" lon="2.87917">
        <ele>1126.31498</ele>
        <time>2022-03-06T07:46:37Z</time>
      </trkpt>
      <trkpt lat="45.64728" lon="2.87991">
        <ele>1124.597052</ele>
        <time>2022-03-06T07:48:03Z</time>
      </trkpt>
      <trkpt lat="45.64739" lon="2.88014">
        <ele>1124.175015</ele>
        <time>2022-03-06T07:48:23Z</time>
      </trkpt>
      <trkpt lat="45.64783" lon="2.8807">
        <ele>1122.918689</ele>
        <time>2022-03-06T07:49:24Z</time>
      </trkpt>
      <trkpt lat="45.64773" lon="2.88079">
        <ele>1122.722204</ele>
        <time>2022-03-06T07:49:37Z</time>
      </trkpt>
      <trkpt lat="45.6474" lon="2.88081">
        <ele>1123.576073</ele>
        <time>2022-03-06T07:50:10Z</time>
      </trkpt>
      <trkpt lat="45.64723" lon="2.88089">
        <ele>1124.050387</ele>
        <time>2022-03-06T07:50:29Z</time>
      </trkpt>
      <trkpt lat="45.64659" lon="2.88086">
        <ele>1125.703494</ele>
        <time>2022-03-06T07:51:40Z</time>
      </trkpt>
      <trkpt lat="45.64616" lon="2.88063">
        <ele>1126.899873</ele>
        <time>2022-03-06T07:52:34Z</time>
      </trkpt>
      <trkpt lat="45.64561" lon="2.88078">
        <ele>1128.468876</ele>
        <time>2022-03-06T07:53:35Z</time>
      </trkpt>
      <trkpt lat="45.64548" lon="2.88088">
        <ele>1128.905716</ele>
        <time>2022-03-06T07:53:53Z</time>
      </trkpt>
      <trkpt lat="45.64494" lon="2.88117">
        <ele>1130.613076</ele>
        <time>2022-03-06T07:54:56Z</time>
      </trkpt>
      <trkpt lat="45.64469" lon="2.88117">
        <ele>1131.342679</ele>
        <time>2022-03-06T07:55:23Z</time>
      </trkpt>
      <trkpt lat="45.64413" lon="2.88176">
        <ele>1133.766585</ele>
        <time>2022-03-06T07:56:39Z</time>
      </trkpt>
      <trkpt lat="45.64368" lon="2.88193">
        <ele>1135.871884</ele>
        <time>2022-03-06T07:57:30Z</time>
      </trkpt>
      <trkpt lat="45.64335" lon="2.88195">
        <ele>1137.339635</ele>
        <time>2022-03-06T07:58:07Z</time>
      </trkpt>
      <trkpt lat="45.64264" lon="2.88176">
        <ele>1140.54689</ele>
        <time>2022-03-06T07:59:34Z</time>
      </trkpt>
      <trkpt lat="45.64124" lon="2.88208">
        <ele>1152.020109</ele>
        <time>2022-03-06T08:02:36Z</time>
      </trkpt>
      <trkpt lat="45.64061" lon="2.88233">
        <ele>1156.631592</ele>
        <time>2022-03-06T08:04:01Z</time>
      </trkpt>
      <trkpt lat="45.64028" lon="2.88278">
        <ele>1159.117721</ele>
        <time>2022-03-06T08:04:59Z</time>
      </trkpt>
      <trkpt lat="45.63944" lon="2.88515">
        <ele>1166.13945</ele>
        <time>2022-03-06T08:08:28Z</time>
      </trkpt>
      <trkpt lat="45.6389" lon="2.88647">
        <ele>1167.716911</ele>
        <time>2022-03-06T08:10:16Z</time>
      </trkpt>
      <trkpt lat="45.63863" lon="2.88693">
        <ele>1167.558942</ele>
        <time>2022-03-06T08:10:58Z</time>
      </trkpt>
      <trkpt lat="45.63824" lon="2.88776">
        <ele>1167.291078</ele>
        <time>2022-03-06T08:12:10Z</time>
      </trkpt>
      <trkpt lat="45.63818" lon="2.88782">
        <ele>1167.264451</ele>
        <time>2022-03-06T08:12:17Z</time>
      </trkpt>
      <trkpt lat="45.63764" lon="2.88837">
        <ele>1167.110497</ele>
        <time>2022-03-06T08:13:24Z</time>
      </trkpt>
      <trkpt lat="45.63744" lon="2.88859">
        <ele>1167.303094</ele>
        <time>2022-03-06T08:13:50Z</time>
      </trkpt>
      <trkpt lat="45.63707" lon="2.88905">
        <ele>1167.679302</ele>
        <time>2022-03-06T08:14:40Z</time>
      </trkpt>
      <trkpt lat="45.63704" lon="2.88924">
        <ele>1167.784565</ele>
        <time>2022-03-06T08:14:55Z</time>
      </trkpt>
      <trkpt lat="45.63671" lon="2.88925">
        <ele>1168.034653</ele>
        <time>2022-03-06T08:15:29Z</time>
      </trkpt>
      <trkpt lat="45.63671" lon="2.88918">
        <ele>1168.069946</ele>
        <time>2022-03-06T08:15:34Z</time>
      </trkpt>
      <trkpt lat="45.63631" lon="2.88918">
        <ele>1168.374331</ele>
        <time>2022-03-06T08:16:16Z</time>
      </trkpt>
      <trkpt lat="45.63631" lon="2.88927">
        <ele>1168.392375</ele>
        <time>2022-03-06T08:16:24Z</time>
      </trkpt>
      <trkpt lat="45.63631" lon="2.88949">
        <ele>1167.879559</ele>
        <time>2022-03-06T08:16:38Z</time>
      </trkpt>
      <trkpt lat="45.63631" lon="2.88966">
        <ele>1167.461514</ele>
        <time>2022-03-06T08:16:51Z</time>
      </trkpt>
      <trkpt lat="45.63629" lon="2.88965">
        <ele>1167.391319</ele>
        <time>2022-03-06T08:16:53Z</time>
      </trkpt>
      <trkpt lat="45.63621" lon="2.88965">
        <ele>1167.09933</ele>
        <time>2022-03-06T08:17:01Z</time>
      </trkpt>
      <trkpt lat="45.63554" lon="2.88976">
        <ele>1164.749604</ele>
        <time>2022-03-06T08:18:13Z</time>
      </trkpt>
      <trkpt lat="45.63519" lon="2.88981">
        <ele>1163.536851</ele>
        <time>2022-03-06T08:18:52Z</time>
      </trkpt>
      <trkpt lat="45.63494" lon="2.88994">
        <ele>1162.59913</ele>
        <time>2022-03-06T08:19:23Z</time>
      </trkpt>
      <trkpt lat="45.63464" lon="2.89014">
        <ele>1160.819082</ele>
        <time>2022-03-06T08:19:59Z</time>
      </trkpt>
      <trkpt lat="45.63442" lon="2.89129">
        <ele>1155.430687</ele>
        <time>2022-03-06T08:21:36Z</time>
      </trkpt>
      <trkpt lat="45.63443" lon="2.89141">
        <ele>1154.851286</ele>
        <time>2022-03-06T08:21:46Z</time>
      </trkpt>
      <trkpt lat="45.63449" lon="2.89157">
        <ele>1153.99917</ele>
        <time>2022-03-06T08:22:01Z</time>
      </trkpt>
      <trkpt lat="45.63618" lon="2.89392">
        <ele>1138.868431</ele>
        <time>2022-03-06T08:26:24Z</time>
      </trkpt>
      <trkpt lat="45.63469" lon="2.89512">
        <ele>1122.52795</ele>
        <time>2022-03-06T08:29:48Z</time>
      </trkpt>
      <trkpt lat="45.63394" lon="2.8954">
        <ele>1113.156098</ele>
        <time>2022-03-06T08:31:25Z</time>
      </trkpt>
      <trkpt lat="45.63348" lon="2.89619">
        <ele>1104.323761</ele>
        <time>2022-03-06T08:32:54Z</time>
      </trkpt>
      <trkpt lat="45.63301" lon="2.89701">
        <ele>1095.491886</ele>
        <time>2022-03-06T08:34:27Z</time>
      </trkpt>
      <trkpt lat="45.63255" lon="2.89738">
        <ele>1089.577629</ele>
        <time>2022-03-06T08:35:32Z</time>
      </trkpt>
      <trkpt lat="45.6323" lon="2.89771">
        <ele>1085.652753</ele>
        <time>2022-03-06T08:36:14Z</time>
      </trkpt>
      <trkpt lat="45.63197" lon="2.89843">
        <ele>1078.959115</ele>
        <time>2022-03-06T08:37:26Z</time>
      </trkpt>
      <trkpt lat="45.63183" lon="2.89883">
        <ele>1076.776352</ele>
        <time>2022-03-06T08:38:03Z</time>
      </trkpt>
      <trkpt lat="45.63142" lon="2.89956">
        <ele>1072.142471</ele>
        <time>2022-03-06T08:39:19Z</time>
      </trkpt>
      <trkpt lat="45.63134" lon="2.9002">
        <ele>1068.974821</ele>
        <time>2022-03-06T08:40:10Z</time>
      </trkpt>
      <trkpt lat="45.63141" lon="2.90059">
        <ele>1066.978038</ele>
        <time>2022-03-06T08:40:42Z</time>
      </trkpt>
      <trkpt lat="45.63133" lon="2.90098">
        <ele>1066.307519</ele>
        <time>2022-03-06T08:41:12Z</time>
      </trkpt>
      <trkpt lat="45.63044" lon="2.90201">
        <ele>1065.248645</ele>
        <time>2022-03-06T08:43:08Z</time>
      </trkpt>
      <trkpt lat="45.63026" lon="2.90224">
        <ele>1065.023881</ele>
        <time>2022-03-06T08:43:34Z</time>
      </trkpt>
      <trkpt lat="45.6302" lon="2.9024">
        <ele>1064.905371</ele>
        <time>2022-03-06T08:43:47Z</time>
      </trkpt>
      <trkpt lat="45.63017" lon="2.90249">
        <ele>1064.842674</ele>
        <time>2022-03-06T08:43:54Z</time>
      </trkpt>
      <trkpt lat="45.63018" lon="2.90273">
        <ele>1064.818441</ele>
        <time>2022-03-06T08:44:12Z</time>
      </trkpt>
      <trkpt lat="45.6304" lon="2.90355">
        <ele>1064.728691</ele>
        <time>2022-03-06T08:45:16Z</time>
      </trkpt>
      <trkpt lat="45.63058" lon="2.90467">
        <ele>1064.610226</ele>
        <time>2022-03-06T08:46:37Z</time>
      </trkpt>
      <trkpt lat="45.63085" lon="2.90577">
        <ele>1061.346707</ele>
        <time>2022-03-06T08:48:05Z</time>
      </trkpt>
      <trkpt lat="45.6311" lon="2.90639">
        <ele>1058.678289</ele>
        <time>2022-03-06T08:49:00Z</time>
      </trkpt>
      <trkpt lat="45.63202" lon="2.90728">
        <ele>1052.09042</ele>
        <time>2022-03-06T08:51:09Z</time>
      </trkpt>
      <trkpt lat="45.63256" lon="2.90806">
        <ele>1046.845548</ele>
        <time>2022-03-06T08:52:37Z</time>
      </trkpt>
      <trkpt lat="45.63267" lon="2.90888">
        <ele>1042.857637</ele>
        <time>2022-03-06T08:53:42Z</time>
      </trkpt>
      <trkpt lat="45.63291" lon="2.90936">
        <ele>1041.348764</ele>
        <time>2022-03-06T08:54:28Z</time>
      </trkpt>
      <trkpt lat="45.63325" lon="2.90975">
        <ele>1039.889212</ele>
        <time>2022-03-06T08:55:14Z</time>
      </trkpt>
      <trkpt lat="45.63337" lon="2.91078">
        <ele>1037.433824</ele>
        <time>2022-03-06T08:56:31Z</time>
      </trkpt>
      <trkpt lat="45.63337" lon="2.91147">
        <ele>1035.999603</ele>
        <time>2022-03-06T08:57:22Z</time>
      </trkpt>
      <trkpt lat="45.63382" lon="2.91352">
        <ele>1032.287102</ele>
        <time>2022-03-06T09:00:00Z</time>
      </trkpt>
      <trkpt lat="45.63391" lon="2.91444">
        <ele>1030.549131</ele>
        <time>2022-03-06T09:01:09Z</time>
      </trkpt>
      <trkpt lat="45.63456" lon="2.91647">
        <ele>1026.636532</ele>
        <time>2022-03-06T09:03:53Z</time>
      </trkpt>
      <trkpt lat="45.63492" lon="2.91661">
        <ele>1025.990581</ele>
        <time>2022-03-06T09:04:33Z</time>
      </trkpt>
      <trkpt lat="45.63516" lon="2.91825">
        <ele>1024.179427</ele>
        <time>2022-03-06T09:06:34Z</time>
      </trkpt>
      <trkpt lat="45.63551" lon="2.9185">
        <ele>1024.393966</ele>
        <time>2022-03-06T09:07:13Z</time>
      </trkpt>
      <trkpt lat="45.63628" lon="2.91905">
        <ele>1024.868807</ele>
        <time>2022-03-06T09:08:41Z</time>
      </trkpt>
      <trkpt lat="45.63707" lon="2.91986">
        <ele>1026.376644</ele>
        <time>2022-03-06T09:10:24Z</time>
      </trkpt>
      <trkpt lat="45.63729" lon="2.91999">
        <ele>1026.946618</ele>
        <time>2022-03-06T09:10:50Z</time>
      </trkpt>
      <trkpt lat="45.63828" lon="2.91988">
        <ele>1029.33468</ele>
        <time>2022-03-06T09:12:38Z</time>
      </trkpt>
      <trkpt lat="45.639" lon="2.9206">
        <ele>1031.586576</ele>
        <time>2022-03-06T09:14:17Z</time>
      </trkpt>
      <trkpt lat="45.63977" lon="2.92028">
        <ele>1033.637944</ele>
        <time>2022-03-06T09:15:44Z</time>
      </trkpt>
      <trkpt lat="45.6401" lon="2.91989">
        <ele>1033.878979</ele>
        <time>2022-03-06T09:16:29Z</time>
      </trkpt>
      <trkpt lat="45.64027" lon="2.9193">
        <ele>1033.550557</ele>
        <time>2022-03-06T09:17:14Z</time>
      </trkpt>
      <trkpt lat="45.64099" lon="2.91852">
        <ele>1032.871494</ele>
        <time>2022-03-06T09:18:47Z</time>
      </trkpt>
      <trkpt lat="45.64117" lon="2.91842">
        <ele>1032.704429</ele>
        <time>2022-03-06T09:19:08Z</time>
      </trkpt>
      <trkpt lat="45.64138" lon="2.91853">
        <ele>1031.993548</ele>
        <time>2022-03-06T09:19:31Z</time>
      </trkpt>
      <trkpt lat="45.64145" lon="2.9185">
        <ele>1031.75544</ele>
        <time>2022-03-06T09:19:39Z</time>
      </trkpt>
      <trkpt lat="45.64166" lon="2.91844">
        <ele>1031.060626</ele>
        <time>2022-03-06T09:20:03Z</time>
      </trkpt>
      <trkpt lat="45.64186" lon="2.91834">
        <ele>1030.377843</ele>
        <time>2022-03-06T09:20:26Z</time>
      </trkpt>
      <trkpt lat="45.64215" lon="2.91838">
        <ele>1029.462542</ele>
        <time>2022-03-06T09:20:57Z</time>
      </trkpt>
      <trkpt lat="45.64231" lon="2.9186">
        <ele>1028.738233</ele>
        <time>2022-03-06T09:21:21Z</time>
      </trkpt>
      <trkpt lat="45.64243" lon="2.91855">
        <ele>1028.335825</ele>
        <time>2022-03-06T09:21:34Z</time>
      </trkpt>
      <trkpt lat="45.64254" lon="2.91853">
        <ele>1027.980993</ele>
        <time>2022-03-06T09:21:46Z</time>
      </trkpt>
      <trkpt lat="45.64243" lon="2.91855">
        <ele>1027.626161</ele>
        <time>2022-03-06T09:21:57Z</time>
      </trkpt>
      <trkpt lat="45.64261" lon="2.9188">
        <ele>1026.853395</ele>
        <time>2022-03-06T09:22:24Z</time>
      </trkpt>
      <trkpt lat="45.64296" lon="2.91893">
        <ele>1025.923348</ele>
        <time>2022-03-06T09:23:02Z</time>
      </trkpt>
      <trkpt lat="45.64321" lon="2.91911">
        <ele>1025.192848</ele>
        <time>2022-03-06T09:23:32Z</time>
      </trkpt>
      <trkpt lat="45.64331" lon="2.91943">
        <ele>1024.548509</ele>
        <time>2022-03-06T09:23:58Z</time>
      </trkpt>
      <trkpt lat="45.64333" lon="2.91992">
        <ele>1023.657863</ele>
        <time>2022-03-06T09:24:34Z</time>
      </trkpt>
      <trkpt lat="45.64371" lon="2.92072">
        <ele>1022.10001</ele>
        <time>2022-03-06T09:25:44Z</time>
      </trkpt>
      <trkpt lat="45.64374" lon="2.92076">
        <ele>1022.05077</ele>
        <time>2022-03-06T09:25:48Z</time>
      </trkpt>
      <trkpt lat="45.64412" lon="2.92134">
        <ele>1021.393259</ele>
        <time>2022-03-06T09:26:45Z</time>
      </trkpt>
      <trkpt lat="45.64439" lon="2.92202">
        <ele>1020.742797</ele>
        <time>2022-03-06T09:27:42Z</time>
      </trkpt>
      <trkpt lat="45.64462" lon="2.92299">
        <ele>1019.855968</ele>
        <time>2022-03-06T09:28:54Z</time>
      </trkpt>
      <trkpt lat="45.64488" lon="2.92355">
        <ele>1019.203673</ele>
        <time>2022-03-06T09:29:42Z</time>
      </trkpt>
      <trkpt lat="45.64524" lon="2.92421">
        <ele>1018.380148</ele>
        <time>2022-03-06T09:30:43Z</time>
      </trkpt>
      <trkpt lat="45.64543" lon="2.9247">
        <ele>1017.837317</ele>
        <time>2022-03-06T09:31:23Z</time>
      </trkpt>
      <trkpt lat="45.64573" lon="2.92567">
        <ele>1016.15486</ele>
        <time>2022-03-06T09:32:41Z</time>
      </trkpt>
      <trkpt lat="45.64686" lon="2.92674">
        <ele>1012.903835</ele>
        <time>2022-03-06T09:35:05Z</time>
      </trkpt>
      <trkpt lat="45.64696" lon="2.92691">
        <ele>1012.638639</ele>
        <time>2022-03-06T09:35:21Z</time>
      </trkpt>
      <trkpt lat="45.64737" lon="2.92783">
        <ele>1011.300093</ele>
        <time>2022-03-06T09:36:41Z</time>
      </trkpt>
      <trkpt lat="45.64836" lon="2.92899">
        <ele>1008.988267</ele>
        <time>2022-03-06T09:38:52Z</time>
      </trkpt>
      <trkpt lat="45.6488" lon="2.92965">
        <ele>1007.816511</ele>
        <time>2022-03-06T09:39:56Z</time>
      </trkpt>
      <trkpt lat="45.64893" lon="2.92976">
        <ele>1007.527232</ele>
        <time>2022-03-06T09:40:12Z</time>
      </trkpt>
      <trkpt lat="45.64905" lon="2.92977">
        <ele>1007.294008</ele>
        <time>2022-03-06T09:40:26Z</time>
      </trkpt>
      <trkpt lat="45.64958" lon="2.92955">
        <ele>1005.606103</ele>
        <time>2022-03-06T09:41:25Z</time>
      </trkpt>
      <trkpt lat="45.65047" lon="2.92941">
        <ele>1001.311975</ele>
        <time>2022-03-06T09:43:03Z</time>
      </trkpt>
      <trkpt lat="45.65089" lon="2.92925">
        <ele>999.239865</ele>
        <time>2022-03-06T09:43:51Z</time>
      </trkpt>
      <trkpt lat="45.65123" lon="2.92892">
        <ele>997.756853</ele>
        <time>2022-03-06T09:44:38Z</time>
      </trkpt>
      <trkpt lat="45.65151" lon="2.92881">
        <ele>997.271623</ele>
        <time>2022-03-06T09:45:10Z</time>
      </trkpt>
      <trkpt lat="45.65182" lon="2.92892">
        <ele>996.736321</ele>
        <time>2022-03-06T09:45:44Z</time>
      </trkpt>
      <trkpt lat="45.65189" lon="2.92901">
        <ele>996.578853</ele>
        <time>2022-03-06T09:45:54Z</time>
      </trkpt>
      <trkpt lat="45.65268" lon="2.93179">
        <ele>999.002934</ele>
        <time>2022-03-06T09:49:33Z</time>
      </trkpt>
      <trkpt lat="45.65396" lon="2.93408">
        <ele>1010.986888</ele>
        <time>2022-03-06T09:53:50Z</time>
      </trkpt>
      <trkpt lat="45.65436" lon="2.93452">
        <ele>1014.036364</ele>
        <time>2022-03-06T09:54:51Z</time>
      </trkpt>
      <trkpt lat="45.65452" lon="2.9347">
        <ele>1014.808281</ele>
        <time>2022-03-06T09:55:16Z</time>
      </trkpt>
      <trkpt lat="45.65535" lon="2.93537">
        <ele>1018.407376</ele>
        <time>2022-03-06T09:57:04Z</time>
      </trkpt>
      <trkpt lat="45.65666" lon="2.93707">
        <ele>1021.675174</ele>
        <time>2022-03-06T10:00:11Z</time>
      </trkpt>
      <trkpt lat="45.65723" lon="2.93762">
        <ele>1022.254352</ele>
        <time>2022-03-06T10:01:20Z</time>
      </trkpt>
      <trkpt lat="45.65802" lon="2.93819">
        <ele>1022.288599</ele>
        <time>2022-03-06T10:02:48Z</time>
      </trkpt>
      <trkpt lat="45.6583" lon="2.93843">
        <ele>1022.301356</ele>
        <time>2022-03-06T10:03:21Z</time>
      </trkpt>
      <trkpt lat="45.65876" lon="2.93852">
        <ele>1022.326968</ele>
        <time>2022-03-06T10:04:08Z</time>
      </trkpt>
      <trkpt lat="45.65958" lon="2.93886">
        <ele>1022.780433</ele>
        <time>2022-03-06T10:05:34Z</time>
      </trkpt>
      <trkpt lat="45.6598" lon="2.93889">
        <ele>1022.90123</ele>
        <time>2022-03-06T10:05:57Z</time>
      </trkpt>
      <trkpt lat="45.65995" lon="2.93883">
        <ele>1022.982173</ele>
        <time>2022-03-06T10:06:12Z</time>
      </trkpt>
      <trkpt lat="45.65989" lon="2.93934">
        <ele>1023.174726</ele>
        <time>2022-03-06T10:06:49Z</time>
      </trkpt>
      <trkpt lat="45.66001" lon="2.93939">
        <ele>1023.241919</ele>
        <time>2022-03-06T10:07:02Z</time>
      </trkpt>
      <trkpt lat="45.66098" lon="2.94156">
        <ele>1024.845592</ele>
        <time>2022-03-06T10:10:08Z</time>
      </trkpt>
      <trkpt lat="45.66128" lon="2.94239">
        <ele>1025.801335</ele>
        <time>2022-03-06T10:11:16Z</time>
      </trkpt>
      <trkpt lat="45.66163" lon="2.94362">
        <ele>1027.229746</ele>
        <time>2022-03-06T10:12:54Z</time>
      </trkpt>
      <trkpt lat="45.66197" lon="2.94438">
        <ele>1028.097726</ele>
        <time>2022-03-06T10:14:02Z</time>
      </trkpt>
      <trkpt lat="45.66293" lon="2.9463">
        <ele>1029.800485</ele>
        <time>2022-03-06T10:16:54Z</time>
      </trkpt>
      <trkpt lat="45.66364" lon="2.94768">
        <ele>1029.130152</ele>
        <time>2022-03-06T10:18:57Z</time>
      </trkpt>
      <trkpt lat="45.66379" lon="2.94821">
        <ele>1028.908276</ele>
        <time>2022-03-06T10:19:39Z</time>
      </trkpt>
      <trkpt lat="45.66289" lon="2.94954">
        <ele>1031.495598</ele>
        <time>2022-03-06T10:21:53Z</time>
      </trkpt>
      <trkpt lat="45.66343" lon="2.94996">
        <ele>1033.019256</ele>
        <time>2022-03-06T10:23:05Z</time>
      </trkpt>
      <trkpt lat="45.66444" lon="2.95112">
        <ele>1039.254173</ele>
        <time>2022-03-06T10:25:42Z</time>
      </trkpt>
      <trkpt lat="45.66478" lon="2.95163">
        <ele>1041.128574</ele>
        <time>2022-03-06T10:26:37Z</time>
      </trkpt>
      <trkpt lat="45.66592" lon="2.95278">
        <ele>1039.978303</ele>
        <time>2022-03-06T10:28:58Z</time>
      </trkpt>
      <trkpt lat="45.66678" lon="2.9533">
        <ele>1035.597754</ele>
        <time>2022-03-06T10:30:42Z</time>
      </trkpt>
      <trkpt lat="45.66686" lon="2.95331">
        <ele>1035.072659</ele>
        <time>2022-03-06T10:30:51Z</time>
      </trkpt>
      <trkpt lat="45.66734" lon="2.95342">
        <ele>1031.77908</ele>
        <time>2022-03-06T10:31:47Z</time>
      </trkpt>
      <trkpt lat="45.66774" lon="2.95336">
        <ele>1029.071256</ele>
        <time>2022-03-06T10:32:34Z</time>
      </trkpt>
      <trkpt lat="45.66814" lon="2.95303">
        <ele>1025.445194</ele>
        <time>2022-03-06T10:33:27Z</time>
      </trkpt>
      <trkpt lat="45.66841" lon="2.95293">
        <ele>1022.9811</ele>
        <time>2022-03-06T10:34:00Z</time>
      </trkpt>
      <trkpt lat="45.66841" lon="2.95293">
        <ele>1022.95159</ele>
        <time>2022-03-06T10:34:01Z</time>
      </trkpt>
      <trkpt lat="45.66934" lon="2.9522">
        <ele>1013.557317</ele>
        <time>2022-03-06T10:36:04Z</time>
      </trkpt>
      <trkpt lat="45.67031" lon="2.95117">
        <ele>1002.194</ele>
        <time>2022-03-06T10:38:29Z</time>
      </trkpt>
      <trkpt lat="45.67047" lon="2.95115">
        <ele>1000.659493</ele>
        <time>2022-03-06T10:38:49Z</time>
      </trkpt>
      <trkpt lat="45.6717" lon="2.95213">
        <ele>989.579009</ele>
        <time>2022-03-06T10:41:34Z</time>
      </trkpt>
      <trkpt lat="45.6731" lon="2.95323">
        <ele>980.965352</ele>
        <time>2022-03-06T10:44:30Z</time>
      </trkpt>
      <trkpt lat="45.67304" lon="2.95341">
        <ele>980.467675</ele>
        <time>2022-03-06T10:44:45Z</time>
      </trkpt>
      <trkpt lat="45.67227" lon="2.95515">
        <ele>975.767858</ele>
        <time>2022-03-06T10:47:17Z</time>
      </trkpt>
      <trkpt lat="45.67148" lon="2.95659">
        <ele>971.920739</ele>
        <time>2022-03-06T10:49:32Z</time>
      </trkpt>
      <trkpt lat="45.67113" lon="2.95718">
        <ele>970.18774</ele>
        <time>2022-03-06T10:50:31Z</time>
      </trkpt>
      <trkpt lat="45.67085" lon="2.9582">
        <ele>967.726026</ele>
        <time>2022-03-06T10:51:52Z</time>
      </trkpt>
      <trkpt lat="45.6707" lon="2.95855">
        <ele>966.803654</ele>
        <time>2022-03-06T10:52:23Z</time>
      </trkpt>
      <trkpt lat="45.66971" lon="2.96054">
        <ele>962.055624</ele>
        <time>2022-03-06T10:55:25Z</time>
      </trkpt>
      <trkpt lat="45.66931" lon="2.96116">
        <ele>960.789348</ele>
        <time>2022-03-06T10:56:26Z</time>
      </trkpt>
      <trkpt lat="45.66891" lon="2.96196">
        <ele>960.572973</ele>
        <time>2022-03-06T10:57:36Z</time>
      </trkpt>
      <trkpt lat="45.66954" lon="2.96215">
        <ele>960.369084</ele>
        <time>2022-03-06T10:58:43Z</time>
      </trkpt>
      <trkpt lat="45.67027" lon="2.96249">
        <ele>959.308286</ele>
        <time>2022-03-06T11:00:00Z</time>
      </trkpt>
      <trkpt lat="45.6703" lon="2.96266">
        <ele>959.036163</ele>
        <time>2022-03-06T11:00:12Z</time>
      </trkpt>
      <trkpt lat="45.67023" lon="2.96291">
        <ele>958.599478</ele>
        <time>2022-03-06T11:00:31Z</time>
      </trkpt>
      <trkpt lat="45.67021" lon="2.96302">
        <ele>958.415831</ele>
        <time>2022-03-06T11:00:40Z</time>
      </trkpt>
      <trkpt lat="45.67013" lon="2.96348">
        <ele>957.656429</ele>
        <time>2022-03-06T11:01:15Z</time>
      </trkpt>
      <trkpt lat="45.67012" lon="2.96423">
        <ele>956.46667</ele>
        <time>2022-03-06T11:02:11Z</time>
      </trkpt>
      <trkpt lat="45.6706" lon="2.96584">
        <ele>950.360963</ele>
        <time>2022-03-06T11:04:27Z</time>
      </trkpt>
      <trkpt lat="45.67074" lon="2.96697">
        <ele>946.332573</ele>
        <time>2022-03-06T11:05:57Z</time>
      </trkpt>
      <trkpt lat="45.67073" lon="2.96721">
        <ele>945.924521</ele>
        <time>2022-03-06T11:06:15Z</time>
      </trkpt>
      <trkpt lat="45.67061" lon="2.96785">
        <ele>944.774137</ele>
        <time>2022-03-06T11:07:05Z</time>
      </trkpt>
      <trkpt lat="45.67084" lon="2.96794">
        <ele>944.179091</ele>
        <time>2022-03-06T11:07:31Z</time>
      </trkpt>
      <trkpt lat="45.67113" lon="2.96794">
        <ele>943.470023</ele>
        <time>2022-03-06T11:08:01Z</time>
      </trkpt>
      <trkpt lat="45.67368" lon="2.96738">
        <ele>940.693581</ele>
        <time>2022-03-06T11:12:20Z</time>
      </trkpt>
      <trkpt lat="45.67406" lon="2.96751">
        <ele>939.471442</ele>
        <time>2022-03-06T11:13:01Z</time>
      </trkpt>
      <trkpt lat="45.67433" lon="2.96759">
        <ele>938.622282</ele>
        <time>2022-03-06T11:13:30Z</time>
      </trkpt>
      <trkpt lat="45.67572" lon="2.97063">
        <ele>927.667592</ele>
        <time>2022-03-06T11:18:09Z</time>
      </trkpt>
      <trkpt lat="45.67594" lon="2.97098">
        <ele>925.834927</ele>
        <time>2022-03-06T11:18:46Z</time>
      </trkpt>
      <trkpt lat="45.67599" lon="2.97108">
        <ele>925.326782</ele>
        <time>2022-03-06T11:18:55Z</time>
      </trkpt>
      <trkpt lat="45.6762" lon="2.97127">
        <ele>923.823188</ele>
        <time>2022-03-06T11:19:23Z</time>
      </trkpt>
      <trkpt lat="45.67699" lon="2.97178">
        <ele>918.634774</ele>
        <time>2022-03-06T11:21:01Z</time>
      </trkpt>
      <trkpt lat="45.67721" lon="2.97212">
        <ele>916.722576</ele>
        <time>2022-03-06T11:21:37Z</time>
      </trkpt>
      <trkpt lat="45.67768" lon="2.97265">
        <ele>914.211612</ele>
        <time>2022-03-06T11:22:44Z</time>
      </trkpt>
      <trkpt lat="45.67782" lon="2.97288">
        <ele>913.392184</ele>
        <time>2022-03-06T11:23:07Z</time>
      </trkpt>
      <trkpt lat="45.67809" lon="2.97358">
        <ele>911.239224</ele>
        <time>2022-03-06T11:24:08Z</time>
      </trkpt>
      <trkpt lat="45.67906" lon="2.97533">
        <ele>908.507598</ele>
        <time>2022-03-06T11:26:48Z</time>
      </trkpt>
      <trkpt lat="45.67923" lon="2.97558">
        <ele>908.34028</ele>
        <time>2022-03-06T11:27:12Z</time>
      </trkpt>
      <trkpt lat="45.67979" lon="2.97606">
        <ele>907.92377</ele>
        <time>2022-03-06T11:28:18Z</time>
      </trkpt>
      <trkpt lat="45.68041" lon="2.97661">
        <ele>907.580092</ele>
        <time>2022-03-06T11:29:32Z</time>
      </trkpt>
      <trkpt lat="45.68061" lon="2.97697">
        <ele>907.426973</ele>
        <time>2022-03-06T11:30:05Z</time>
      </trkpt>
      <trkpt lat="45.68113" lon="2.97846">
        <ele>907.959803</ele>
        <time>2022-03-06T11:32:02Z</time>
      </trkpt>
      <trkpt lat="45.68132" lon="2.97891">
        <ele>908.514993</ele>
        <time>2022-03-06T11:32:41Z</time>
      </trkpt>
      <trkpt lat="45.68152" lon="2.97914">
        <ele>908.885096</ele>
        <time>2022-03-06T11:33:07Z</time>
      </trkpt>
      <trkpt lat="45.68191" lon="2.97932">
        <ele>909.499152</ele>
        <time>2022-03-06T11:33:52Z</time>
      </trkpt>
      <trkpt lat="45.68245" lon="2.97944">
        <ele>911.08562</ele>
        <time>2022-03-06T11:34:55Z</time>
      </trkpt>
      <trkpt lat="45.68355" lon="2.97954">
        <ele>915.202341</ele>
        <time>2022-03-06T11:37:01Z</time>
      </trkpt>
      <trkpt lat="45.68376" lon="2.97976">
        <ele>916.161031</ele>
        <time>2022-03-06T11:37:30Z</time>
      </trkpt>
      <trkpt lat="45.68407" lon="2.97981">
        <ele>916.808451</ele>
        <time>2022-03-06T11:38:05Z</time>
      </trkpt>
      <trkpt lat="45.68455" lon="2.97965">
        <ele>917.39239</ele>
        <time>2022-03-06T11:38:58Z</time>
      </trkpt>
      <trkpt lat="45.68512" lon="2.98025">
        <ele>918.241324</ele>
        <time>2022-03-06T11:40:11Z</time>
      </trkpt>
      <trkpt lat="45.68582" lon="2.98055">
        <ele>918.093586</ele>
        <time>2022-03-06T11:41:26Z</time>
      </trkpt>
      <trkpt lat="45.68591" lon="2.98068">
        <ele>917.851062</ele>
        <time>2022-03-06T11:41:40Z</time>
      </trkpt>
      <trkpt lat="45.68607" lon="2.9811">
        <ele>917.250439</ele>
        <time>2022-03-06T11:42:14Z</time>
      </trkpt>
      <trkpt lat="45.68619" lon="2.98176">
        <ele>916.368401</ele>
        <time>2022-03-06T11:43:04Z</time>
      </trkpt>
      <trkpt lat="45.68663" lon="2.98234">
        <ele>915.318232</ele>
        <time>2022-03-06T11:44:06Z</time>
      </trkpt>
      <trkpt lat="45.68674" lon="2.9826">
        <ele>915.060996</ele>
        <time>2022-03-06T11:44:29Z</time>
      </trkpt>
      <trkpt lat="45.6868" lon="2.98282">
        <ele>914.857357</ele>
        <time>2022-03-06T11:44:46Z</time>
      </trkpt>
      <trkpt lat="45.68682" lon="2.98315">
        <ele>914.575627</ele>
        <time>2022-03-06T11:45:10Z</time>
      </trkpt>
      <trkpt lat="45.68679" lon="2.98403">
        <ele>913.8341</ele>
        <time>2022-03-06T11:46:13Z</time>
      </trkpt>
      <trkpt lat="45.68691" lon="2.98429">
        <ele>913.567603</ele>
        <time>2022-03-06T11:46:36Z</time>
      </trkpt>
      <trkpt lat="45.68745" lon="2.98485">
        <ele>913.412407</ele>
        <time>2022-03-06T11:47:43Z</time>
      </trkpt>
      <trkpt lat="45.68763" lon="2.9855">
        <ele>913.648722</ele>
        <time>2022-03-06T11:48:32Z</time>
      </trkpt>
      <trkpt lat="45.68803" lon="2.98597">
        <ele>913.90342</ele>
        <time>2022-03-06T11:49:26Z</time>
      </trkpt>
      <trkpt lat="45.6883" lon="2.98657">
        <ele>914.137258</ele>
        <time>2022-03-06T11:50:17Z</time>
      </trkpt>
      <trkpt lat="45.68893" lon="2.98688">
        <ele>914.390273</ele>
        <time>2022-03-06T11:51:25Z</time>
      </trkpt>
      <trkpt lat="45.68921" lon="2.98673">
        <ele>914.503239</ele>
        <time>2022-03-06T11:51:55Z</time>
      </trkpt>
      <trkpt lat="45.68931" lon="2.98674">
        <ele>914.542373</ele>
        <time>2022-03-06T11:52:05Z</time>
      </trkpt>
      <trkpt lat="45.6896" lon="2.98703">
        <ele>914.675031</ele>
        <time>2022-03-06T11:52:41Z</time>
      </trkpt>
      <trkpt lat="45.6901" lon="2.98755">
        <ele>914.743161</ele>
        <time>2022-03-06T11:53:43Z</time>
      </trkpt>
      <trkpt lat="45.69024" lon="2.9879">
        <ele>914.705021</ele>
        <time>2022-03-06T11:54:13Z</time>
      </trkpt>
      <trkpt lat="45.69025" lon="2.98805">
        <ele>914.690975</ele>
        <time>2022-03-06T11:54:24Z</time>
      </trkpt>
      <trkpt lat="45.69036" lon="2.98807">
        <ele>914.676202</ele>
        <time>2022-03-06T11:54:35Z</time>
      </trkpt>
      <trkpt lat="45.69041" lon="2.98779">
        <ele>914.649352</ele>
        <time>2022-03-06T11:54:55Z</time>
      </trkpt>
      <trkpt lat="45.69053" lon="2.98759">
        <ele>914.625167</ele>
        <time>2022-03-06T11:55:13Z</time>
      </trkpt>
      <trkpt lat="45.69061" lon="2.98755">
        <ele>914.613806</ele>
        <time>2022-03-06T11:55:22Z</time>
      </trkpt>
      <trkpt lat="45.69072" lon="2.98751">
        <ele>914.59794</ele>
        <time>2022-03-06T11:55:34Z</time>
      </trkpt>
      <trkpt lat="45.69133" lon="2.9877">
        <ele>914.164125</ele>
        <time>2022-03-06T11:56:37Z</time>
      </trkpt>
      <trkpt lat="45.69099" lon="2.98834">
        <ele>913.244698</ele>
        <time>2022-03-06T11:57:35Z</time>
      </trkpt>
      <trkpt lat="45.69095" lon="2.98863">
        <ele>912.905625</ele>
        <time>2022-03-06T11:57:56Z</time>
      </trkpt>
      <trkpt lat="45.69096" lon="2.98932">
        <ele>912.123727</ele>
        <time>2022-03-06T11:58:46Z</time>
      </trkpt>
      <trkpt lat="45.691" lon="2.98944">
        <ele>911.970412</ele>
        <time>2022-03-06T11:58:56Z</time>
      </trkpt>
      <trkpt lat="45.69107" lon="2.98965">
        <ele>911.701425</ele>
        <time>2022-03-06T11:59:13Z</time>
      </trkpt>
      <trkpt lat="45.69172" lon="2.99058">
        <ele>909.831632</ele>
        <time>2022-03-06T12:00:50Z</time>
      </trkpt>
      <trkpt lat="45.69191" lon="2.99108">
        <ele>909.01853</ele>
        <time>2022-03-06T12:01:32Z</time>
      </trkpt>
      <trkpt lat="45.69201" lon="2.99211">
        <ele>907.813414</ele>
        <time>2022-03-06T12:02:47Z</time>
      </trkpt>
      <trkpt lat="45.69209" lon="2.99254">
        <ele>907.656909</ele>
        <time>2022-03-06T12:03:19Z</time>
      </trkpt>
      <trkpt lat="45.69265" lon="2.9938">
        <ele>907.123747</ele>
        <time>2022-03-06T12:05:04Z</time>
      </trkpt>
      <trkpt lat="45.69308" lon="2.99446">
        <ele>908.074225</ele>
        <time>2022-03-06T12:06:10Z</time>
      </trkpt>
      <trkpt lat="45.69314" lon="2.99451">
        <ele>908.25209</ele>
        <time>2022-03-06T12:06:16Z</time>
      </trkpt>
      <trkpt lat="45.69348" lon="2.99474">
        <ele>909.348887</ele>
        <time>2022-03-06T12:06:57Z</time>
      </trkpt>
      <trkpt lat="45.69374" lon="2.9952">
        <ele>910.53081</ele>
        <time>2022-03-06T12:07:41Z</time>
      </trkpt>
      <trkpt lat="45.69398" lon="2.99559">
        <ele>911.578539</ele>
        <time>2022-03-06T12:08:23Z</time>
      </trkpt>
      <trkpt lat="45.69408" lon="2.99535">
        <ele>912.117608</ele>
        <time>2022-03-06T12:08:46Z</time>
      </trkpt>
      <trkpt lat="45.69411" lon="2.99496">
        <ele>913.886693</ele>
        <time>2022-03-06T12:09:20Z</time>
      </trkpt>
      <trkpt lat="45.69421" lon="2.99447">
        <ele>916.246494</ele>
        <time>2022-03-06T12:10:05Z</time>
      </trkpt>
      <trkpt lat="45.69432" lon="2.99424">
        <ele>917.524003</ele>
        <time>2022-03-06T12:10:29Z</time>
      </trkpt>
      <trkpt lat="45.69484" lon="2.99384">
        <ele>921.447864</ele>
        <time>2022-03-06T12:11:42Z</time>
      </trkpt>
      <trkpt lat="45.69485" lon="2.99365">
        <ele>922.325391</ele>
        <time>2022-03-06T12:11:59Z</time>
      </trkpt>
      <trkpt lat="45.69495" lon="2.9935">
        <ele>923.283283</ele>
        <time>2022-03-06T12:12:16Z</time>
      </trkpt>
      <trkpt lat="45.69516" lon="2.99286">
        <ele>925.688161</ele>
        <time>2022-03-06T12:13:16Z</time>
      </trkpt>
      <trkpt lat="45.69542" lon="2.99175">
        <ele>929.223966</ele>
        <time>2022-03-06T12:14:54Z</time>
      </trkpt>
      <trkpt lat="45.69566" lon="2.99115">
        <ele>931.309146</ele>
        <time>2022-03-06T12:15:45Z</time>
      </trkpt>
      <trkpt lat="45.69556" lon="2.99068">
        <ele>931.98671</ele>
        <time>2022-03-06T12:16:21Z</time>
      </trkpt>
      <trkpt lat="45.69526" lon="2.98981">
        <ele>932.452991</ele>
        <time>2022-03-06T12:17:30Z</time>
      </trkpt>
      <trkpt lat="45.69521" lon="2.98938">
        <ele>932.660636</ele>
        <time>2022-03-06T12:18:01Z</time>
      </trkpt>
      <trkpt lat="45.69557" lon="2.98855">
        <ele>933.234474</ele>
        <time>2022-03-06T12:19:09Z</time>
      </trkpt>
      <trkpt lat="45.69575" lon="2.98763">
        <ele>934.668976</ele>
        <time>2022-03-06T12:20:19Z</time>
      </trkpt>
      <trkpt lat="45.69608" lon="2.98656">
        <ele>936.400473</ele>
        <time>2022-03-06T12:21:47Z</time>
      </trkpt>
      <trkpt lat="45.69638" lon="2.98512">
        <ele>940.500473</ele>
        <time>2022-03-06T12:23:48Z</time>
      </trkpt>
      <trkpt lat="45.69652" lon="2.98389">
        <ele>944.332877</ele>
        <time>2022-03-06T12:25:31Z</time>
      </trkpt>
      <trkpt lat="45.69694" lon="2.98195">
        <ele>949.217747</ele>
        <time>2022-03-06T12:28:11Z</time>
      </trkpt>
      <trkpt lat="45.69707" lon="2.98073">
        <ele>952.01879</ele>
        <time>2022-03-06T12:29:44Z</time>
      </trkpt>
      <trkpt lat="45.69733" lon="2.97938">
        <ele>955.07002</ele>
        <time>2022-03-06T12:31:31Z</time>
      </trkpt>
      <trkpt lat="45.69802" lon="2.97759">
        <ele>961.657614</ele>
        <time>2022-03-06T12:34:17Z</time>
      </trkpt>
      <trkpt lat="45.69843" lon="2.97586">
        <ele>968.765842</ele>
        <time>2022-03-06T12:36:52Z</time>
      </trkpt>
      <trkpt lat="45.69884" lon="2.97459">
        <ele>974.747546</ele>
        <time>2022-03-06T12:38:51Z</time>
      </trkpt>
      <trkpt lat="45.69922" lon="2.97382">
        <ele>977.920697</ele>
        <time>2022-03-06T12:40:10Z</time>
      </trkpt>
      <trkpt lat="45.6996" lon="2.97231">
        <ele>981.403676</ele>
        <time>2022-03-06T12:42:16Z</time>
      </trkpt>
      <trkpt lat="45.70028" lon="2.97033">
        <ele>982.578583</ele>
        <time>2022-03-06T12:44:51Z</time>
      </trkpt>
      <trkpt lat="45.70053" lon="2.9699">
        <ele>982.571785</ele>
        <time>2022-03-06T12:45:31Z</time>
      </trkpt>
      <trkpt lat="45.70072" lon="2.96937">
        <ele>982.642925</ele>
        <time>2022-03-06T12:46:14Z</time>
      </trkpt>
      <trkpt lat="45.70084" lon="2.96902">
        <ele>982.769615</ele>
        <time>2022-03-06T12:46:41Z</time>
      </trkpt>
      <trkpt lat="45.7013" lon="2.96788">
        <ele>983.199157</ele>
        <time>2022-03-06T12:48:14Z</time>
      </trkpt>
      <trkpt lat="45.70146" lon="2.96748">
        <ele>983.351431</ele>
        <time>2022-03-06T12:48:48Z</time>
      </trkpt>
      <trkpt lat="45.70136" lon="2.96735">
        <ele>983.50163</ele>
        <time>2022-03-06T12:49:03Z</time>
      </trkpt>
      <trkpt lat="45.70135" lon="2.96685">
        <ele>985.024708</ele>
        <time>2022-03-06T12:49:40Z</time>
      </trkpt>
      <trkpt lat="45.70129" lon="2.96675">
        <ele>985.431938</ele>
        <time>2022-03-06T12:49:51Z</time>
      </trkpt>
      <trkpt lat="45.70122" lon="2.96629">
        <ele>986.870489</ele>
        <time>2022-03-06T12:50:29Z</time>
      </trkpt>
      <trkpt lat="45.70094" lon="2.96568">
        <ele>989.111345</ele>
        <time>2022-03-06T12:51:30Z</time>
      </trkpt>
      <trkpt lat="45.7007" lon="2.96503">
        <ele>991.356523</ele>
        <time>2022-03-06T12:52:32Z</time>
      </trkpt>
      <trkpt lat="45.70064" lon="2.96462">
        <ele>992.473961</ele>
        <time>2022-03-06T12:53:07Z</time>
      </trkpt>
      <trkpt lat="45.70067" lon="2.96325">
        <ele>996.151624</ele>
        <time>2022-03-06T12:54:57Z</time>
      </trkpt>
      <trkpt lat="45.70079" lon="2.96268">
        <ele>997.721885</ele>
        <time>2022-03-06T12:55:43Z</time>
      </trkpt>
      <trkpt lat="45.70093" lon="2.96239">
        <ele>998.12799</ele>
        <time>2022-03-06T12:56:09Z</time>
      </trkpt>
      <trkpt lat="45.70113" lon="2.96172">
        <ele>997.886381</ele>
        <time>2022-03-06T12:57:01Z</time>
      </trkpt>
      <trkpt lat="45.70152" lon="2.96118">
        <ele>997.631448</ele>
        <time>2022-03-06T12:57:56Z</time>
      </trkpt>
      <trkpt lat="45.7019" lon="2.96051">
        <ele>997.34679</ele>
        <time>2022-03-06T12:58:59Z</time>
      </trkpt>
      <trkpt lat="45.70212" lon="2.96019">
        <ele>997.022636</ele>
        <time>2022-03-06T12:59:31Z</time>
      </trkpt>
      <trkpt lat="45.70231" lon="2.95974">
        <ele>996.614686</ele>
        <time>2022-03-06T13:00:10Z</time>
      </trkpt>
      <trkpt lat="45.70267" lon="2.95923">
        <ele>996.065761</ele>
        <time>2022-03-06T13:01:01Z</time>
      </trkpt>
      <trkpt lat="45.70281" lon="2.95892">
        <ele>995.779336</ele>
        <time>2022-03-06T13:01:28Z</time>
      </trkpt>
      <trkpt lat="45.70311" lon="2.95847">
        <ele>995.499829</ele>
        <time>2022-03-06T13:02:11Z</time>
      </trkpt>
      <trkpt lat="45.70334" lon="2.95808">
        <ele>996.183738</ele>
        <time>2022-03-06T13:02:47Z</time>
      </trkpt>
      <trkpt lat="45.70368" lon="2.95725">
        <ele>997.485616</ele>
        <time>2022-03-06T13:03:56Z</time>
      </trkpt>
      <trkpt lat="45.70375" lon="2.95684">
        <ele>998.061475</ele>
        <time>2022-03-06T13:04:28Z</time>
      </trkpt>
      <trkpt lat="45.70401" lon="2.95646">
        <ele>998.773706</ele>
        <time>2022-03-06T13:05:12Z</time>
      </trkpt>
      <trkpt lat="45.70448" lon="2.95579">
        <ele>1002.900608</ele>
        <time>2022-03-06T13:06:32Z</time>
      </trkpt>
      <trkpt lat="45.70473" lon="2.95487">
        <ele>1007.36932</ele>
        <time>2022-03-06T13:07:54Z</time>
      </trkpt>
      <trkpt lat="45.70474" lon="2.95485">
        <ele>1007.472392</ele>
        <time>2022-03-06T13:08:00Z</time>
      </trkpt>
      <trkpt lat="45.70471" lon="2.95459">
        <ele>1008.689198</ele>
        <time>2022-03-06T13:08:22Z</time>
      </trkpt>
      <trkpt lat="45.70491" lon="2.95413">
        <ele>1011.304381</ele>
        <time>2022-03-06T13:09:08Z</time>
      </trkpt>
      <trkpt lat="45.70516" lon="2.95387">
        <ele>1014.03399</ele>
        <time>2022-03-06T13:09:50Z</time>
      </trkpt>
      <trkpt lat="45.70528" lon="2.95348">
        <ele>1016.599059</ele>
        <time>2022-03-06T13:10:30Z</time>
      </trkpt>
      <trkpt lat="45.70537" lon="2.95343">
        <ele>1017.491817</ele>
        <time>2022-03-06T13:10:43Z</time>
      </trkpt>
      <trkpt lat="45.70553" lon="2.95311">
        <ele>1019.852854</ele>
        <time>2022-03-06T13:11:20Z</time>
      </trkpt>
      <trkpt lat="45.70592" lon="2.95294">
        <ele>1023.385537</ele>
        <time>2022-03-06T13:12:11Z</time>
      </trkpt>
      <trkpt lat="45.70615" lon="2.95266">
        <ele>1026.046867</ele>
        <time>2022-03-06T13:12:50Z</time>
      </trkpt>
      <trkpt lat="45.70653" lon="2.95206">
        <ele>1029.92113</ele>
        <time>2022-03-06T13:14:01Z</time>
      </trkpt>
      <trkpt lat="45.70675" lon="2.95112">
        <ele>1034.672596</ele>
        <time>2022-03-06T13:15:29Z</time>
      </trkpt>
      <trkpt lat="45.70673" lon="2.95058">
        <ele>1037.207415</ele>
        <time>2022-03-06T13:16:14Z</time>
      </trkpt>
      <trkpt lat="45.70678" lon="2.95006">
        <ele>1039.06592</ele>
        <time>2022-03-06T13:16:57Z</time>
      </trkpt>
      <trkpt lat="45.7073" lon="2.94859">
        <ele>1042.725681</ele>
        <time>2022-03-06T13:19:05Z</time>
      </trkpt>
      <trkpt lat="45.70888" lon="2.94631">
        <ele>1047.530201</ele>
        <time>2022-03-06T13:23:05Z</time>
      </trkpt>
      <trkpt lat="45.70972" lon="2.94489">
        <ele>1047.854651</ele>
        <time>2022-03-06T13:25:18Z</time>
      </trkpt>
      <trkpt lat="45.70997" lon="2.94429">
        <ele>1047.963725</ele>
        <time>2022-03-06T13:26:07Z</time>
      </trkpt>
      <trkpt lat="45.71005" lon="2.94374">
        <ele>1047.917087</ele>
        <time>2022-03-06T13:26:47Z</time>
      </trkpt>
      <trkpt lat="45.71033" lon="2.94337">
        <ele>1047.860156</ele>
        <time>2022-03-06T13:27:26Z</time>
      </trkpt>
    </trkseg>
  </trk>
</gpx>